sensor_id;sensor_type;location;lat;lon;timestamp;pressure;altitude;pressure_sealevel;temperature;humidity
71567;BME280;59403;47.456;19.120;2023-04-15T00:02:15;99365.34;;;5.93;100.00
71567;BME280;59403;47.456;19.120;2023-04-15T00:04:43;99364.97;;;5.88;100.00
71567;BME280;59403;47.456;19.120;2023-04-15T00:07:10;99369.41;;;5.88;100.00
71567;BME280;59403;47.456;19.120;2023-04-15T00:09:37;99375.66;;;5.87;100.00
71567;BME280;59403;47.456;19.120;2023-04-15T00:12:04;99372.41;;;5.93;100.00
71567;BME280;59403;47.456;19.120;2023-04-15T00:14:32;99370.81;;;6.00;100.00
71567;BME280;59403;47.456;19.120;2023-04-15T00:17:00;99377.25;;;6.05;100.00
71567;BME280;59403;47.456;19.120;2023-04-15T00:19:27;99369.31;;;5.97;100.00
71567;BME280;59403;47.456;19.120;2023-04-15T00:21:54;99370.81;;;6.00;100.00
71567;BME280;59403;47.456;19.120;2023-04-15T00:24:21;99374.63;;;6.05;100.00
71567;BME280;59403;47.456;19.120;2023-04-15T00:26:48;99379.72;;;6.07;100.00
71567;BME280;59403;47.456;19.120;2023-04-15T00:29:15;99374.59;;;5.97;100.00
71567;BME280;59403;47.456;19.120;2023-04-15T00:31:42;99374.63;;;6.05;100.00
71567;BME280;59403;47.456;19.120;2023-04-15T00:34:10;99373.53;;;6.08;100.00
71567;BME280;59403;47.456;19.120;2023-04-15T00:36:38;99373.88;;;6.13;100.00
71567;BME280;59403;47.456;19.120;2023-04-15T00:39:05;99368.09;;;6.09;100.00
71567;BME280;59403;47.456;19.120;2023-04-15T00:41:32;99366.16;;;6.11;100.00
71567;BME280;59403;47.456;19.120;2023-04-15T00:44:00;99365.91;;;6.05;100.00
71567;BME280;59403;47.456;19.120;2023-04-15T00:46:28;99370.56;;;6.11;100.00
71567;BME280;59403;47.456;19.120;2023-04-15T00:48:56;99369.91;;;6.09;100.00
71567;BME280;59403;47.456;19.120;2023-04-15T00:51:24;99365.84;;;6.14;100.00
71567;BME280;59403;47.456;19.120;2023-04-15T00:53:51;99368.09;;;6.09;100.00
71567;BME280;59403;47.456;19.120;2023-04-15T00:56:20;99363.38;;;6.13;100.00
71567;BME280;59403;47.456;19.120;2023-04-15T00:58:49;99357.94;;;6.14;100.00
71567;BME280;59403;47.456;19.120;2023-04-15T01:01:17;99363.38;;;6.13;100.00
71567;BME280;59403;47.456;19.120;2023-04-15T01:03:47;99362.53;;;6.12;100.00
71567;BME280;59403;47.456;19.120;2023-04-15T01:06:15;99366.97;;;6.12;100.00
71567;BME280;59403;47.456;19.120;2023-04-15T01:08:44;99358.78;;;6.15;100.00
71567;BME280;59403;47.456;19.120;2023-04-15T01:11:12;99354.66;;;6.12;100.00
71567;BME280;59403;47.456;19.120;2023-04-15T01:13:39;99351.56;;;6.17;100.00
71567;BME280;59403;47.456;19.120;2023-04-15T01:16:06;99351.69;;;6.15;100.00
71567;BME280;59403;47.456;19.120;2023-04-15T01:18:35;99355.00;;;6.17;100.00
71567;BME280;59403;47.456;19.120;2023-04-15T01:21:03;99355.53;;;6.21;100.00
71567;BME280;59403;47.456;19.120;2023-04-15T01:23:31;99356.50;;;6.20;100.00
71567;BME280;59403;47.456;19.120;2023-04-15T01:25:59;99353.06;;;6.19;100.00
71567;BME280;59403;47.456;19.120;2023-04-15T01:28:27;99355.00;;;6.17;100.00
71567;BME280;59403;47.456;19.120;2023-04-15T01:31:05;99353.69;;;6.13;100.00
71567;BME280;59403;47.456;19.120;2023-04-15T01:33:33;99357.47;;;6.19;100.00
71567;BME280;59403;47.456;19.120;2023-04-15T01:36:00;99354.41;;;6.23;100.00
71567;BME280;59403;47.456;19.120;2023-04-15T01:38:27;99351.56;;;6.17;100.00
71567;BME280;59403;47.456;19.120;2023-04-15T01:40:55;99366.00;;;6.13;100.00
71567;BME280;59403;47.456;19.120;2023-04-15T01:43:24;99361.63;;;6.21;100.00
71567;BME280;59403;47.456;19.120;2023-04-15T01:45:50;99361.78;;;6.20;100.00
71567;BME280;59403;47.456;19.120;2023-04-15T01:48:17;99368.81;;;6.19;100.00
71567;BME280;59403;47.456;19.120;2023-04-15T01:50:44;99366.81;;;6.13;100.00
71567;BME280;59403;47.456;19.120;2023-04-15T01:53:12;99366.34;;;6.18;100.00
71567;BME280;59403;47.456;19.120;2023-04-15T01:55:38;99361.63;;;6.21;100.00
71567;BME280;59403;47.456;19.120;2023-04-15T01:58:05;99362.81;;;6.27;100.00
71567;BME280;59403;47.456;19.120;2023-04-15T02:00:33;99361.66;;;6.29;100.00
71567;BME280;59403;47.456;19.120;2023-04-15T02:03:01;99363.16;;;6.32;100.00
71567;BME280;59403;47.456;19.120;2023-04-15T02:05:28;99364.59;;;6.26;100.00
71567;BME280;59403;47.456;19.120;2023-04-15T02:07:56;99377.13;;;6.32;100.00
71567;BME280;59403;47.456;19.120;2023-04-15T02:10:23;99372.25;;;6.37;100.00
71567;BME280;59403;47.456;19.120;2023-04-15T02:12:50;99373.03;;;6.38;100.00
71567;BME280;59403;47.456;19.120;2023-04-15T02:15:17;99363.50;;;6.37;100.00
71567;BME280;59403;47.456;19.120;2023-04-15T02:17:45;99368.41;;;6.32;100.00
71567;BME280;59403;47.456;19.120;2023-04-15T02:20:15;99366.63;;;6.32;100.00
71567;BME280;59403;47.456;19.120;2023-04-15T02:22:42;99377.50;;;6.37;100.00
71567;BME280;59403;47.456;19.120;2023-04-15T02:25:09;99381.59;;;6.40;100.00
71567;BME280;59403;47.456;19.120;2023-04-15T02:27:36;99381.31;;;6.43;100.00
71567;BME280;59403;47.456;19.120;2023-04-15T02:30:04;99384.75;;;6.43;100.00
71567;BME280;59403;47.456;19.120;2023-04-15T02:32:31;99389.03;;;6.44;100.00
71567;BME280;59403;47.456;19.120;2023-04-15T02:35:02;99383.78;;;6.44;100.00
71567;BME280;59403;47.456;19.120;2023-04-15T02:37:30;99384.31;;;6.48;100.00
71567;BME280;59403;47.456;19.120;2023-04-15T02:40:01;99384.59;;;6.45;100.00
71567;BME280;59403;47.456;19.120;2023-04-15T02:42:29;99384.94;;;6.50;100.00
71567;BME280;59403;47.456;19.120;2023-04-15T02:44:56;99379.84;;;6.48;100.00
71567;BME280;59403;47.456;19.120;2023-04-15T02:47:23;99380.34;;;6.52;100.00
71567;BME280;59403;47.456;19.120;2023-04-15T02:49:51;99376.44;;;6.56;100.00
71567;BME280;59403;47.456;19.120;2023-04-15T02:52:19;99376.44;;;6.56;100.00
71567;BME280;59403;47.456;19.120;2023-04-15T02:54:46;99378.25;;;6.55;100.00
71567;BME280;59403;47.456;19.120;2023-04-15T02:57:13;99369.22;;;6.58;100.00
71567;BME280;59403;47.456;19.120;2023-04-15T02:59:40;99371.69;;;6.59;100.00
71567;BME280;59403;47.456;19.120;2023-04-15T03:02:07;99382.22;;;6.59;100.00
71567;BME280;59403;47.456;19.120;2023-04-15T03:04:33;99372.53;;;6.60;100.00
71567;BME280;59403;47.456;19.120;2023-04-15T03:07:00;99375.44;;;6.57;100.00
71567;BME280;59403;47.456;19.120;2023-04-15T03:09:29;99374.13;;;6.53;100.00
71567;BME280;59403;47.456;19.120;2023-04-15T03:11:55;99368.72;;;6.54;100.00
71567;BME280;59403;47.456;19.120;2023-04-15T03:14:22;99357.03;;;6.57;100.00
71567;BME280;59403;47.456;19.120;2023-04-15T03:16:50;99362.97;;;6.59;100.00
71567;BME280;59403;47.456;19.120;2023-04-15T03:19:17;99362.00;;;6.60;100.00
71567;BME280;59403;47.456;19.120;2023-04-15T03:21:44;99358.72;;;6.58;100.00
71567;BME280;59403;47.456;19.120;2023-04-15T03:24:11;99362.16;;;6.58;100.00
71567;BME280;59403;47.456;19.120;2023-04-15T03:26:39;99365.75;;;6.57;100.00
71567;BME280;59403;47.456;19.120;2023-04-15T03:29:07;99363.28;;;6.56;100.00
71567;BME280;59403;47.456;19.120;2023-04-15T03:31:33;99365.44;;;6.60;100.00
71567;BME280;59403;47.456;19.120;2023-04-15T03:34:00;99361.19;;;6.59;100.00
71567;BME280;59403;47.456;19.120;2023-04-15T03:36:28;99366.59;;;6.58;100.00
71567;BME280;59403;47.456;19.120;2023-04-15T03:38:55;99365.91;;;6.56;100.00
71567;BME280;59403;47.456;19.120;2023-04-15T03:41:22;99369.22;;;6.58;100.00
71567;BME280;59403;47.456;19.120;2023-04-15T03:43:51;99371.03;;;6.57;100.00
71567;BME280;59403;47.456;19.120;2023-04-15T03:46:18;99367.72;;;6.55;100.00
71567;BME280;59403;47.456;19.120;2023-04-15T03:48:45;99372.97;;;6.55;100.00
71567;BME280;59403;47.456;19.120;2023-04-15T03:51:12;99370.00;;;6.50;100.00
71567;BME280;59403;47.456;19.120;2023-04-15T03:53:39;99367.53;;;6.49;100.00
71567;BME280;59403;47.456;19.120;2023-04-15T03:56:06;99370.31;;;6.47;100.00
71567;BME280;59403;47.456;19.120;2023-04-15T03:58:33;99366.53;;;6.50;100.00
71567;BME280;59403;47.456;19.120;2023-04-15T04:01:02;99373.47;;;6.51;100.00
71567;BME280;59403;47.456;19.120;2023-04-15T04:03:29;99359.31;;;6.52;100.00
71567;BME280;59403;47.456;19.120;2023-04-15T04:05:56;99371.16;;;6.48;100.00
71567;BME280;59403;47.456;19.120;2023-04-15T04:08:23;99363.09;;;6.49;100.00
71567;BME280;59403;47.456;19.120;2023-04-15T04:10:52;99367.22;;;6.52;100.00
71567;BME280;59403;47.456;19.120;2023-04-15T04:13:18;99358.63;;;6.50;100.00
71567;BME280;59403;47.456;19.120;2023-04-15T04:15:45;99363.09;;;6.49;100.00
71567;BME280;59403;47.456;19.120;2023-04-15T04:18:14;99367.22;;;6.52;100.00
71567;BME280;59403;47.456;19.120;2023-04-15T04:20:40;99358.63;;;6.50;100.00
71567;BME280;59403;47.456;19.120;2023-04-15T04:23:07;99368.56;;;6.56;100.00
71567;BME280;59403;47.456;19.120;2023-04-15T04:25:34;99372.69;;;6.58;100.00
71567;BME280;59403;47.456;19.120;2023-04-15T04:28:02;99364.94;;;6.57;100.00
71567;BME280;59403;47.456;19.120;2023-04-15T04:30:29;99365.31;;;6.62;100.00
71567;BME280;59403;47.456;19.120;2023-04-15T04:32:56;99367.78;;;6.63;100.00
71567;BME280;59403;47.456;19.120;2023-04-15T04:35:24;99373.84;;;6.64;100.00
71567;BME280;59403;47.456;19.120;2023-04-15T04:37:51;99369.94;;;6.68;100.00
71567;BME280;59403;47.456;19.120;2023-04-15T04:40:18;99372.41;;;6.69;100.00
71567;BME280;59403;47.456;19.120;2023-04-15T04:42:46;99366.16;;;6.70;100.00
71567;BME280;59403;47.456;19.120;2023-04-15T04:45:13;99357.97;;;6.73;100.00
71567;BME280;59403;47.456;19.120;2023-04-15T04:47:40;99353.37;;;6.75;100.00
71567;BME280;59403;47.456;19.120;2023-04-15T04:50:08;99361.94;;;6.85;100.00
71567;BME280;59403;47.456;19.120;2023-04-15T04:52:36;99365.09;;;6.97;100.00
71567;BME280;59403;47.456;19.120;2023-04-15T04:55:04;99369.44;;;7.14;100.00
71567;BME280;59403;47.456;19.120;2023-04-15T04:57:33;99366.34;;;7.19;100.00
71567;BME280;59403;47.456;19.120;2023-04-15T05:00:00;99372.38;;;7.85;100.00
71567;BME280;59403;47.456;19.120;2023-04-15T05:02:28;99378.25;;;8.43;100.00
71567;BME280;59403;47.456;19.120;2023-04-15T05:04:56;99370.38;;;7.95;100.00
71567;BME280;59403;47.456;19.120;2023-04-15T05:07:23;99366.75;;;7.72;100.00
71567;BME280;59403;47.456;19.120;2023-04-15T05:09:51;99367.06;;;7.53;100.00
71567;BME280;59403;47.456;19.120;2023-04-15T05:12:18;99368.53;;;7.39;100.00
71567;BME280;59403;47.456;19.120;2023-04-15T05:14:45;99370.31;;;7.31;100.00
71567;BME280;59403;47.456;19.120;2023-04-15T05:17:12;99373.28;;;7.28;100.00
71567;BME280;59403;47.456;19.120;2023-04-15T05:19:39;99379.72;;;7.49;100.00
71567;BME280;59403;47.456;19.120;2023-04-15T05:22:07;99383.91;;;8.24;100.00
71567;BME280;59403;47.456;19.120;2023-04-15T05:24:34;99370.97;;;8.61;100.00
71567;BME280;59403;47.456;19.120;2023-04-15T05:27:02;99381.53;;;8.53;100.00
71567;BME280;59403;47.456;19.120;2023-04-15T05:29:29;99375.97;;;8.08;100.00
71567;BME280;59403;47.456;19.120;2023-04-15T05:31:56;99378.47;;;8.10;100.00
71567;BME280;59403;47.456;19.120;2023-04-15T05:34:23;99380.75;;;8.13;100.00
71567;BME280;59403;47.456;19.120;2023-04-15T05:36:49;99383.87;;;8.00;100.00
71567;BME280;59403;47.456;19.120;2023-04-15T05:39:17;99387.69;;;7.89;100.00
71567;BME280;59403;47.456;19.120;2023-04-15T05:41:44;99399.37;;;7.79;100.00
71567;BME280;59403;47.456;19.120;2023-04-15T05:44:12;99401.66;;;7.66;100.00
71567;BME280;59403;47.456;19.120;2023-04-15T05:46:39;99393.75;;;7.58;100.00
71567;BME280;59403;47.456;19.120;2023-04-15T05:49:06;99393.28;;;7.62;100.00
71567;BME280;59403;47.456;19.120;2023-04-15T05:51:33;99398.22;;;7.81;100.00
71567;BME280;59403;47.456;19.120;2023-04-15T05:54:00;99395.91;;;7.94;100.00
71567;BME280;59403;47.456;19.120;2023-04-15T05:56:27;99397.25;;;7.98;100.00
71567;BME280;59403;47.456;19.120;2023-04-15T05:58:54;99389.81;;;8.02;100.00
71567;BME280;59403;47.456;19.120;2023-04-15T06:01:22;99399.87;;;8.23;100.00
71567;BME280;59403;47.456;19.120;2023-04-15T06:03:50;99398.53;;;8.19;100.00
71567;BME280;59403;47.456;19.120;2023-04-15T06:06:17;99396.41;;;8.38;100.00
71567;BME280;59403;47.456;19.120;2023-04-15T06:08:43;99404.94;;;8.64;100.00
71567;BME280;59403;47.456;19.120;2023-04-15T06:11:10;99411.00;;;8.73;100.00
71567;BME280;59403;47.456;19.120;2023-04-15T06:13:37;99406.94;;;8.54;100.00
71567;BME280;59403;47.456;19.120;2023-04-15T06:16:04;99408.03;;;8.76;100.00
71567;BME280;59403;47.456;19.120;2023-04-15T06:18:33;99400.41;;;8.81;100.00
71567;BME280;59403;47.456;19.120;2023-04-15T06:21:00;99410.44;;;9.01;100.00
71567;BME280;59403;47.456;19.120;2023-04-15T06:23:27;99402.59;;;9.16;100.00
71567;BME280;59403;47.456;19.120;2023-04-15T06:25:54;99406.25;;;9.15;100.00
71567;BME280;59403;47.456;19.120;2023-04-15T06:28:21;99420.84;;;9.34;100.00
71567;BME280;59403;47.456;19.120;2023-04-15T06:30:48;99420.03;;;9.33;100.00
71567;BME280;59403;47.456;19.120;2023-04-15T06:33:15;99422.72;;;9.25;100.00
71567;BME280;59403;47.456;19.120;2023-04-15T06:35:44;99418.53;;;9.00;100.00
71567;BME280;59403;47.456;19.120;2023-04-15T06:38:11;99428.13;;;8.85;100.00
71567;BME280;59403;47.456;19.120;2023-04-15T06:40:38;99418.19;;;8.95;100.00
71567;BME280;59403;47.456;19.120;2023-04-15T06:43:05;99430.25;;;8.97;100.00
71567;BME280;59403;47.456;19.120;2023-04-15T06:45:33;99440.31;;;8.94;100.00
71567;BME280;59403;47.456;19.120;2023-04-15T06:48:00;99435.88;;;8.86;100.00
71567;BME280;59403;47.456;19.120;2023-04-15T06:50:27;99441.78;;;9.04;100.00
71567;BME280;59403;47.456;19.120;2023-04-15T06:52:55;99435.31;;;9.07;100.00
71567;BME280;59403;47.456;19.120;2023-04-15T06:55:22;99441.81;;;8.96;100.00
71567;BME280;59403;47.456;19.120;2023-04-15T06:57:49;99442.50;;;8.90;100.00
71567;BME280;59403;47.456;19.120;2023-04-15T07:00:17;99441.25;;;9.09;100.00
71567;BME280;59403;47.456;19.120;2023-04-15T07:02:44;99449.16;;;9.17;100.00
71567;BME280;59403;47.456;19.120;2023-04-15T07:05:11;99440.59;;;9.07;100.00
71567;BME280;59403;47.456;19.120;2023-04-15T07:07:38;99445.16;;;9.29;100.00
71567;BME280;59403;47.456;19.120;2023-04-15T07:10:07;99444.63;;;9.34;100.00
71567;BME280;59403;47.456;19.120;2023-04-15T07:12:36;99442.56;;;9.52;100.00
71567;BME280;59403;47.456;19.120;2023-04-15T07:15:04;99440.53;;;9.62;100.00
71567;BME280;59403;47.456;19.120;2023-04-15T07:17:31;99441.28;;;9.70;100.00
71567;BME280;59403;47.456;19.120;2023-04-15T07:19:58;99446.22;;;9.73;100.00
71567;BME280;59403;47.456;19.120;2023-04-15T07:22:26;99447.31;;;10.09;100.00
71567;BME280;59403;47.456;19.120;2023-04-15T07:24:53;99448.81;;;10.12;100.00
71567;BME280;59403;47.456;19.120;2023-04-15T07:27:21;99450.50;;;10.27;100.00
71567;BME280;59403;47.456;19.120;2023-04-15T07:29:48;99445.28;;;10.57;100.00
71567;BME280;59403;47.456;19.120;2023-04-15T07:32:16;99442.34;;;10.52;100.00
71567;BME280;59403;47.456;19.120;2023-04-15T07:34:43;99446.56;;;10.61;100.00
71567;BME280;59403;47.456;19.120;2023-04-15T07:37:11;99442.56;;;10.65;100.00
71567;BME280;59403;47.456;19.120;2023-04-15T07:39:38;99445.72;;;10.60;100.00
71567;BME280;59403;47.456;19.120;2023-04-15T07:42:05;99443.28;;;10.88;100.00
71567;BME280;59403;47.456;19.120;2023-04-15T07:44:33;99450.91;;;10.91;98.72
71567;BME280;59403;47.456;19.120;2023-04-15T07:47:01;99451.09;;;10.89;99.62
71567;BME280;59403;47.456;19.120;2023-04-15T07:49:28;99446.31;;;11.14;100.00
71567;BME280;59403;47.456;19.120;2023-04-15T07:51:55;99444.56;;;11.50;96.58
71567;BME280;59403;47.456;19.120;2023-04-15T07:54:24;99443.78;;;11.56;99.31
71567;BME280;59403;47.456;19.120;2023-04-15T07:56:51;99446.47;;;11.41;97.66
71567;BME280;59403;47.456;19.120;2023-04-15T07:59:18;99441.88;;;11.65;95.92
71567;BME280;59403;47.456;19.120;2023-04-15T08:01:47;99431.63;;;11.62;94.42
71567;BME280;59403;47.456;19.120;2023-04-15T08:04:14;99447.28;;;11.92;93.99
71567;BME280;59403;47.456;19.120;2023-04-15T08:06:41;99443.69;;;11.79;94.13
71567;BME280;59403;47.456;19.120;2023-04-15T08:09:08;99442.34;;;11.68;94.89
71567;BME280;59403;47.456;19.120;2023-04-15T08:11:35;99446.13;;;11.44;91.43
71567;BME280;59403;47.456;19.120;2023-04-15T08:14:02;99447.88;;;11.23;90.54
71567;BME280;59403;47.456;19.120;2023-04-15T08:16:29;99449.22;;;11.48;91.83
71567;BME280;59403;47.456;19.120;2023-04-15T08:18:57;99441.94;;;11.71;90.78
71567;BME280;59403;47.456;19.120;2023-04-15T08:21:24;99447.53;;;11.97;89.83
71567;BME280;59403;47.456;19.120;2023-04-15T08:23:52;99452.59;;;11.92;87.87
71567;BME280;59403;47.456;19.120;2023-04-15T08:26:20;99447.09;;;11.94;88.47
71567;BME280;59403;47.456;19.120;2023-04-15T08:28:47;99456.28;;;12.12;85.32
71567;BME280;59403;47.456;19.120;2023-04-15T08:31:15;99460.66;;;11.99;87.33
71567;BME280;59403;47.456;19.120;2023-04-15T08:33:43;99456.44;;;11.69;89.79
71567;BME280;59403;47.456;19.120;2023-04-15T08:36:11;99465.56;;;11.52;88.93
71567;BME280;59403;47.456;19.120;2023-04-15T08:38:39;99463.00;;;11.43;89.88
71567;BME280;59403;47.456;19.120;2023-04-15T08:41:11;99460.41;;;11.29;90.14
71567;BME280;59403;47.456;19.120;2023-04-15T08:43:48;99466.41;;;11.23;87.06
71567;BME280;59403;47.456;19.120;2023-04-15T08:46:17;99466.72;;;11.13;85.48
71567;BME280;59403;47.456;19.120;2023-04-15T08:48:46;99465.88;;;11.13;85.95
71567;BME280;59403;47.456;19.120;2023-04-15T08:51:15;99476.03;;;11.09;87.38
71567;BME280;59403;47.456;19.120;2023-04-15T08:53:43;99466.22;;;11.24;85.86
71567;BME280;59403;47.456;19.120;2023-04-15T08:56:13;99470.34;;;11.12;86.53
71567;BME280;59403;47.456;19.120;2023-04-15T08:58:41;99475.19;;;11.09;86.61
71567;BME280;59403;47.456;19.120;2023-04-15T09:01:10;99478.75;;;11.16;87.38
71567;BME280;59403;47.456;19.120;2023-04-15T09:03:38;99478.13;;;11.28;86.62
71567;BME280;59403;47.456;19.120;2023-04-15T09:06:05;99474.19;;;11.89;86.05
71567;BME280;59403;47.456;19.120;2023-04-15T09:08:34;99470.94;;;12.08;82.83
71567;BME280;59403;47.456;19.120;2023-04-15T09:11:01;99479.03;;;12.00;80.73
71567;BME280;59403;47.456;19.120;2023-04-15T09:13:28;99455.91;;;11.80;81.91
71567;BME280;59403;47.456;19.120;2023-04-15T09:15:56;99471.44;;;12.18;80.49
71567;BME280;59403;47.456;19.120;2023-04-15T09:18:29;99472.81;;;11.93;83.72
71567;BME280;59403;47.456;19.120;2023-04-15T09:21:04;99476.09;;;11.74;83.43
71567;BME280;59403;47.456;19.120;2023-04-15T09:23:31;99484.88;;;11.45;85.53
71567;BME280;59403;47.456;19.120;2023-04-15T09:26:00;99486.25;;;11.71;84.26
71567;BME280;59403;47.456;19.120;2023-04-15T09:28:27;99485.38;;;12.06;83.08
71567;BME280;59403;47.456;19.120;2023-04-15T09:30:55;99480.66;;;12.43;81.43
71567;BME280;59403;47.456;19.120;2023-04-15T09:33:23;99477.81;;;12.45;81.08
71567;BME280;59403;47.456;19.120;2023-04-15T09:35:56;99476.00;;;12.03;82.62
71567;BME280;59403;47.456;19.120;2023-04-15T09:38:24;99486.84;;;12.08;79.98
71567;BME280;59403;47.456;19.120;2023-04-15T09:40:51;99470.28;;;12.48;77.85
71567;BME280;59403;47.456;19.120;2023-04-15T09:43:20;99476.88;;;12.31;78.69
71567;BME280;59403;47.456;19.120;2023-04-15T09:45:48;99470.19;;;12.14;78.22
71567;BME280;59403;47.456;19.120;2023-04-15T09:48:18;99466.50;;;12.15;80.10
71567;BME280;59403;47.456;19.120;2023-04-15T09:50:47;99477.56;;;12.19;79.40
71567;BME280;59403;47.456;19.120;2023-04-15T09:53:15;99474.66;;;12.14;78.29
71567;BME280;59403;47.456;19.120;2023-04-15T09:55:45;99485.59;;;12.46;78.12
71567;BME280;59403;47.456;19.120;2023-04-15T09:58:17;99481.56;;;12.29;77.55
71567;BME280;59403;47.456;19.120;2023-04-15T10:00:47;99481.50;;;12.23;79.61
71567;BME280;59403;47.456;19.120;2023-04-15T10:03:18;99483.91;;;12.18;78.34
71567;BME280;59403;47.456;19.120;2023-04-15T10:05:46;99490.00;;;12.18;76.91
71567;BME280;59403;47.456;19.120;2023-04-15T10:08:15;99481.78;;;12.13;80.24
71567;BME280;59403;47.456;19.120;2023-04-15T10:10:44;99479.62;;;12.02;77.28
71567;BME280;59403;47.456;19.120;2023-04-15T10:13:12;99481.69;;;12.00;80.64
71567;BME280;59403;47.456;19.120;2023-04-15T10:15:44;99493.59;;;11.90;81.36
71567;BME280;59403;47.456;19.120;2023-04-15T10:18:15;99497.94;;;11.47;83.80
71567;BME280;59403;47.456;19.120;2023-04-15T10:20:43;99499.59;;;11.33;85.42
71567;BME280;59403;47.456;19.120;2023-04-15T10:23:11;99500.97;;;11.29;86.73
71567;BME280;59403;47.456;19.120;2023-04-15T10:25:38;99502.59;;;11.45;87.83
71567;BME280;59403;47.456;19.120;2023-04-15T10:28:05;99506.88;;;11.75;84.60
71567;BME280;59403;47.456;19.120;2023-04-15T10:30:33;99499.00;;;11.82;84.23
71567;BME280;59403;47.456;19.120;2023-04-15T10:33:00;99505.41;;;11.87;86.46
71567;BME280;59403;47.456;19.120;2023-04-15T10:35:30;99504.63;;;11.72;86.14
71567;BME280;59403;47.456;19.120;2023-04-15T10:37:58;99505.00;;;11.69;87.84
71567;BME280;59403;47.456;19.120;2023-04-15T10:40:27;99493.72;;;12.03;86.51
71567;BME280;59403;47.456;19.120;2023-04-15T10:42:56;99506.31;;;12.15;83.45
71567;BME280;59403;47.456;19.120;2023-04-15T10:45:28;99499.13;;;12.30;82.56
71567;BME280;59403;47.456;19.120;2023-04-15T10:48:00;99506.97;;;12.38;80.36
71567;BME280;59403;47.456;19.120;2023-04-15T10:50:29;99499.25;;;12.43;82.40
71567;BME280;59403;47.456;19.120;2023-04-15T10:52:58;99498.47;;;12.28;83.01
71567;BME280;59403;47.456;19.120;2023-04-15T10:55:31;99499.88;;;12.24;83.03
71567;BME280;59403;47.456;19.120;2023-04-15T10:58:00;99510.50;;;12.03;80.58
71567;BME280;59403;47.456;19.120;2023-04-15T11:00:28;99514.47;;;11.64;83.95
71567;BME280;59403;47.456;19.120;2023-04-15T11:02:58;99522.53;;;11.26;87.24
71567;BME280;59403;47.456;19.120;2023-04-15T11:05:51;99531.31;;;11.27;92.62
71567;BME280;59403;47.456;19.120;2023-04-15T11:08:21;99527.09;;;11.18;91.98
71567;BME280;59403;47.456;19.120;2023-04-15T11:11:07;99534.78;;;11.13;92.45
71567;BME280;59403;47.456;19.120;2023-04-15T11:13:33;99526.47;;;11.16;94.32
71567;BME280;59403;47.456;19.120;2023-04-15T11:16:01;99538.06;;;11.29;92.09
71567;BME280;59403;47.456;19.120;2023-04-15T11:18:34;99534.81;;;11.27;93.03
71567;BME280;59403;47.456;19.120;2023-04-15T11:21:05;99531.22;;;11.50;90.99
71567;BME280;59403;47.456;19.120;2023-04-15T11:23:36;99526.38;;;11.53;92.24
71567;BME280;59403;47.456;19.120;2023-04-15T11:26:04;99530.59;;;11.62;90.57
71567;BME280;59403;47.456;19.120;2023-04-15T11:28:34;99524.94;;;11.65;92.10
71567;BME280;59403;47.456;19.120;2023-04-15T11:31:06;99523.56;;;11.69;91.99
71567;BME280;59403;47.456;19.120;2023-04-15T11:33:33;99522.84;;;11.96;89.06
71567;BME280;59403;47.456;19.120;2023-04-15T11:36:00;99519.81;;;11.99;88.56
71567;BME280;59403;47.456;19.120;2023-04-15T11:38:28;99521.63;;;12.13;89.12
71567;BME280;59403;47.456;19.120;2023-04-15T11:40:57;99524.12;;;12.00;89.83
71567;BME280;59403;47.456;19.120;2023-04-15T11:43:24;99524.75;;;12.02;85.31
71567;BME280;59403;47.456;19.120;2023-04-15T11:45:53;99531.06;;;12.01;85.03
71567;BME280;59403;47.456;19.120;2023-04-15T11:48:22;99532.75;;;11.88;83.13
71567;BME280;59403;47.456;19.120;2023-04-15T11:50:53;99527.28;;;11.75;85.74
71567;BME280;59403;47.456;19.120;2023-04-15T11:53:21;99532.44;;;11.97;87.17
71567;BME280;59403;47.456;19.120;2023-04-15T11:55:49;99531.75;;;11.89;85.93
71567;BME280;59403;47.456;19.120;2023-04-15T11:58:20;99524.72;;;11.81;84.69
71567;BME280;59403;47.456;19.120;2023-04-15T12:00:49;99530.50;;;11.85;86.23
71567;BME280;59403;47.456;19.120;2023-04-15T12:03:21;99534.06;;;12.13;84.89
71567;BME280;59403;47.456;19.120;2023-04-15T12:06:08;99540.09;;;12.21;86.50
71567;BME280;59403;47.456;19.120;2023-04-15T12:09:02;99528.16;;;11.96;86.71
71567;BME280;59403;47.456;19.120;2023-04-15T12:11:45;99538.31;;;11.93;88.52
71567;BME280;59403;47.456;19.120;2023-04-15T12:14:20;99537.03;;;11.89;86.71
71567;BME280;59403;47.456;19.120;2023-04-15T12:16:49;99539.03;;;12.01;86.49
71567;BME280;59403;47.456;19.120;2023-04-15T12:19:22;99537.78;;;12.18;85.05
71567;BME280;59403;47.456;19.120;2023-04-15T12:21:52;99535.66;;;12.28;85.38
71567;BME280;59403;47.456;19.120;2023-04-15T12:24:20;99524.94;;;12.36;86.27
71567;BME280;59403;47.456;19.120;2023-04-15T12:26:49;99529.78;;;12.54;86.88
71567;BME280;59403;47.456;19.120;2023-04-15T12:29:19;99535.91;;;12.76;84.53
71567;BME280;59403;47.456;19.120;2023-04-15T12:31:51;99537.94;;;12.52;85.93
71567;BME280;59403;47.456;19.120;2023-04-15T12:34:24;99545.56;;;12.20;83.52
71567;BME280;59403;47.456;19.120;2023-04-15T12:36:52;99535.50;;;12.30;84.29
71567;BME280;59403;47.456;19.120;2023-04-15T12:39:21;99536.75;;;11.98;85.44
71567;BME280;59403;47.456;19.120;2023-04-15T12:41:48;99546.03;;;11.73;84.36
71567;BME280;59403;47.456;19.120;2023-04-15T12:44:15;99541.09;;;11.85;84.87
71567;BME280;59403;47.456;19.120;2023-04-15T12:46:45;99542.72;;;11.86;84.68
71567;BME280;59403;47.456;19.120;2023-04-15T12:49:12;99540.34;;;11.91;84.62
71567;BME280;59403;47.456;19.120;2023-04-15T12:51:40;99542.72;;;12.00;85.25
71567;BME280;59403;47.456;19.120;2023-04-15T12:54:07;99542.16;;;11.90;85.09
71567;BME280;59403;47.456;19.120;2023-04-15T12:56:34;99547.22;;;11.85;86.27